sensor_id;sensor_type;location;lat;lon;timestamp;pressure;altitude;pressure_sealevel;temperature;humidity
8501;BME280;4288;48.484;10.024;2022-11-10T00:01:04;95920.13;;;16.79;83.75
8501;BME280;4288;48.484;10.024;2022-11-10T00:03:32;95920.88;;;16.79;83.80
8501;BME280;4288;48.484;10.024;2022-11-10T00:06:01;95923.56;;;16.79;83.80
8501;BME280;4288;48.484;10.024;2022-11-10T00:08:29;95924.34;;;16.80;83.60
8501;BME280;4288;48.484;10.024;2022-11-10T00:10:56;95926.28;;;16.79;83.67
8501;BME280;4288;48.484;10.024;2022-11-10T00:13:28;95935.91;;;16.80;83.70
8501;BME280;4288;48.484;10.024;2022-11-10T00:15:58;95941.31;;;16.80;83.43
8501;BME280;4288;48.484;10.024;2022-11-10T00:18:43;95935.56;;;16.78;83.91
8501;BME280;4288;48.484;10.024;2022-11-10T00:21:12;95939.75;;;16.79;83.52
8501;BME280;4288;48.484;10.024;2022-11-10T00:23:40;95939.75;;;16.79;83.50
8501;BME280;4288;48.484;10.024;2022-11-10T00:26:14;95942.47;;;16.79;83.62
8501;BME280;4288;48.484;10.024;2022-11-10T00:28:44;95954.03;;;16.80;83.60
8501;BME280;4288;48.484;10.024;2022-11-10T00:31:12;95953.25;;;16.79;83.62
8501;BME280;4288;48.484;10.024;2022-11-10T00:33:41;95956.72;;;16.80;83.67
8501;BME280;4288;48.484;10.024;2022-11-10T00:36:09;95959.44;;;16.80;83.84
8501;BME280;4288;48.484;10.024;2022-11-10T00:38:36;95960.97;;;16.81;83.62
8501;BME280;4288;48.484;10.024;2022-11-10T00:41:04;95962.13;;;16.80;83.56
8501;BME280;4288;48.484;10.024;2022-11-10T00:43:31;95958.28;;;16.81;83.65
8501;BME280;4288;48.484;10.024;2022-11-10T00:46:00;95955.22;;;16.79;83.53
8501;BME280;4288;48.484;10.024;2022-11-10T00:48:27;95955.56;;;16.81;83.50
8501;BME280;4288;48.484;10.024;2022-11-10T00:50:54;95950.56;;;16.79;83.54
8501;BME280;4288;48.484;10.024;2022-11-10T00:53:22;95954.03;;;16.80;83.47
8501;BME280;4288;48.484;10.024;2022-11-10T00:55:49;95959.44;;;16.80;83.47
8501;BME280;4288;48.484;10.024;2022-11-10T00:58:16;95957.91;;;16.79;83.49
8501;BME280;4288;48.484;10.024;2022-11-10T01:00:43;95955.97;;;16.79;83.66
8501;BME280;4288;48.484;10.024;2022-11-10T01:03:14;95958.66;;;16.79;83.49
8501;BME280;4288;48.484;10.024;2022-11-10T01:05:43;95963.31;;;16.79;83.71
8501;BME280;4288;48.484;10.024;2022-11-10T01:08:10;95970.22;;;16.80;83.42
8501;BME280;4288;48.484;10.024;2022-11-10T01:10:37;95975.63;;;16.80;83.54
8501;BME280;4288;48.484;10.024;2022-11-10T01:13:05;95981.81;;;16.80;83.31
8501;BME280;4288;48.484;10.024;2022-11-10T01:15:32;95975.63;;;16.80;83.44
8501;BME280;4288;48.484;10.024;2022-11-10T01:17:59;95981.03;;;16.80;83.64
8501;BME280;4288;48.484;10.024;2022-11-10T01:20:27;95989.13;;;16.80;83.56
8501;BME280;4288;48.484;10.024;2022-11-10T01:22:55;95986.44;;;16.80;83.44
8501;BME280;4288;48.484;10.024;2022-11-10T01:25:22;95989.13;;;16.80;83.24
8501;BME280;4288;48.484;10.024;2022-11-10T01:27:50;95986.44;;;16.80;83.58
8501;BME280;4288;48.484;10.024;2022-11-10T01:30:17;96001.13;;;16.79;83.43
8501;BME280;4288;48.484;10.024;2022-11-10T01:32:45;96004.56;;;16.79;83.51
8501;BME280;4288;48.484;10.024;2022-11-10T01:35:12;96013.44;;;16.80;83.38
8501;BME280;4288;48.484;10.024;2022-11-10T01:37:40;96015.34;;;16.79;83.45
8501;BME280;4288;48.484;10.024;2022-11-10T01:40:09;96018.06;;;16.79;83.53
8501;BME280;4288;48.484;10.024;2022-11-10T01:42:47;96009.97;;;16.79;83.49
8501;BME280;4288;48.484;10.024;2022-11-10T01:45:45;96016.13;;;16.80;83.44
8501;BME280;4288;48.484;10.024;2022-11-10T01:48:19;96024.22;;;16.80;83.35
8501;BME280;4288;48.484;10.024;2022-11-10T01:50:50;96026.16;;;16.79;83.50
8501;BME280;4288;48.484;10.024;2022-11-10T01:53:24;96030.41;;;16.80;83.50
8501;BME280;4288;48.484;10.024;2022-11-10T01:55:52;96024.22;;;16.80;83.37
8501;BME280;4288;48.484;10.024;2022-11-10T01:58:25;96033.09;;;16.80;83.30
8501;BME280;4288;48.484;10.024;2022-11-10T02:00:54;96031.19;;;16.77;83.51
8501;BME280;4288;48.484;10.024;2022-11-10T02:03:26;96034.25;;;16.79;83.67
8501;BME280;4288;48.484;10.024;2022-11-10T02:05:56;96038.91;;;16.79;83.51
8501;BME280;4288;48.484;10.024;2022-11-10T02:08:25;96043.13;;;16.80;83.41
8501;BME280;4288;48.484;10.024;2022-11-10T02:10:52;96044.31;;;16.79;83.30
8501;BME280;4288;48.484;10.024;2022-11-10T02:13:19;96048.53;;;16.80;83.35
8501;BME280;4288;48.484;10.024;2022-11-10T02:15:47;96045.81;;;16.80;83.39
8501;BME280;4288;48.484;10.024;2022-11-10T02:18:14;96040.44;;;16.80;83.29
8501;BME280;4288;48.484;10.024;2022-11-10T02:20:44;96049.72;;;16.79;83.37
8501;BME280;4288;48.484;10.024;2022-11-10T02:26:06;96055.84;;;16.79;83.26
8501;BME280;4288;48.484;10.024;2022-11-10T02:28:34;96052.00;;;16.80;83.38
8501;BME280;4288;48.484;10.024;2022-11-10T02:31:02;96056.63;;;16.80;83.41
8501;BME280;4288;48.484;10.024;2022-11-10T02:33:30;96058.56;;;16.79;83.18
8501;BME280;4288;48.484;10.024;2022-11-10T02:35:59;96052.41;;;16.79;83.11
8501;BME280;4288;48.484;10.024;2022-11-10T02:38:26;96063.22;;;16.79;83.17
8501;BME280;4288;48.484;10.024;2022-11-10T02:40:53;96060.50;;;16.79;83.23
8501;BME280;4288;48.484;10.024;2022-11-10T02:43:20;96070.53;;;16.78;83.30
8501;BME280;4288;48.484;10.024;2022-11-10T02:45:48;96071.31;;;16.79;83.39
8501;BME280;4288;48.484;10.024;2022-11-10T02:48:15;96079.41;;;16.79;83.36
8501;BME280;4288;48.484;10.024;2022-11-10T02:50:43;96083.63;;;16.80;83.10
8501;BME280;4288;48.484;10.024;2022-11-10T02:53:11;96072.81;;;16.80;83.13
8501;BME280;4288;48.484;10.024;2022-11-10T02:55:39;96081.34;;;16.78;83.37
8501;BME280;4288;48.484;10.024;2022-11-10T02:58:06;96084.81;;;16.79;83.04
8501;BME280;4288;48.484;10.024;2022-11-10T03:00:33;96090.19;;;16.79;83.38
8501;BME280;4288;48.484;10.024;2022-11-10T03:03:01;96098.31;;;16.79;83.11
8501;BME280;4288;48.484;10.024;2022-11-10T03:05:29;96098.31;;;16.79;83.25
8501;BME280;4288;48.484;10.024;2022-11-10T03:07:59;96107.56;;;16.78;83.05
8501;BME280;4288;48.484;10.024;2022-11-10T03:10:29;96104.09;;;16.77;83.13
8501;BME280;4288;48.484;10.024;2022-11-10T03:12:58;96109.84;;;16.79;83.04
8501;BME280;4288;48.484;10.024;2022-11-10T03:15:26;96119.13;;;16.78;83.11
8501;BME280;4288;48.484;10.024;2022-11-10T03:17:54;96117.19;;;16.79;83.03
8501;BME280;4288;48.484;10.024;2022-11-10T03:20:21;96125.69;;;16.77;82.98
8501;BME280;4288;48.484;10.024;2022-11-10T03:22:48;96122.25;;;16.77;83.13
8501;BME280;4288;48.484;10.024;2022-11-10T03:25:15;96131.44;;;16.79;83.18
8501;BME280;4288;48.484;10.024;2022-11-10T03:27:44;96137.25;;;16.78;83.00
8501;BME280;4288;48.484;10.024;2022-11-10T03:30:12;96134.56;;;16.78;83.16
8501;BME280;4288;48.484;10.024;2022-11-10T03:32:39;96139.94;;;16.78;82.97
8501;BME280;4288;48.484;10.024;2022-11-10T03:35:07;96159.63;;;16.78;82.81
8501;BME280;4288;48.484;10.024;2022-11-10T03:37:34;96152.31;;;16.79;82.80
8501;BME280;4288;48.484;10.024;2022-11-10T03:40:02;96159.63;;;16.78;83.02
8501;BME280;4288;48.484;10.024;2022-11-10T03:42:29;96160.41;;;16.79;82.78
8501;BME280;4288;48.484;10.024;2022-11-10T03:44:57;96169.66;;;16.78;82.99
8501;BME280;4288;48.484;10.024;2022-11-10T03:47:25;96170.44;;;16.78;82.97
8501;BME280;4288;48.484;10.024;2022-11-10T03:49:52;96172.34;;;16.78;83.03
8501;BME280;4288;48.484;10.024;2022-11-10T03:52:19;96181.22;;;16.78;82.92
8501;BME280;4288;48.484;10.024;2022-11-10T03:54:46;96188.56;;;16.78;82.93
8501;BME280;4288;48.484;10.024;2022-11-10T03:57:13;96190.09;;;16.79;82.95
8501;BME280;4288;48.484;10.024;2022-11-10T03:59:41;96188.56;;;16.78;82.85
8501;BME280;4288;48.484;10.024;2022-11-10T04:02:09;96195.88;;;16.77;82.99
8501;BME280;4288;48.484;10.024;2022-11-10T04:04:36;96198.19;;;16.79;82.81
8501;BME280;4288;48.484;10.024;2022-11-10T04:07:21;96202.81;;;16.78;83.01
8501;BME280;4288;48.484;10.024;2022-11-10T04:10:08;96200.91;;;16.79;82.92
8501;BME280;4288;48.484;10.024;2022-11-10T04:12:35;96202.06;;;16.78;82.89
8501;BME280;4288;48.484;10.024;2022-11-10T04:15:19;96204.75;;;16.78;82.70
8501;BME280;4288;48.484;10.024;2022-11-10T04:18:06;96203.22;;;16.77;82.78
8501;BME280;4288;48.484;10.024;2022-11-10T04:20:50;96209.38;;;16.77;82.62
8501;BME280;4288;48.484;10.024;2022-11-10T04:23:19;96212.06;;;16.77;82.68
8501;BME280;4288;48.484;10.024;2022-11-10T04:26:02;96205.94;;;16.77;82.76
8501;BME280;4288;48.484;10.024;2022-11-10T04:28:49;96211.31;;;16.77;82.92
8501;BME280;4288;48.484;10.024;2022-11-10T04:31:18;96210.16;;;16.78;82.84
8501;BME280;4288;48.484;10.024;2022-11-10T04:33:48;96216.72;;;16.77;82.80
8501;BME280;4288;48.484;10.024;2022-11-10T04:36:18;96207.84;;;16.76;82.59
8501;BME280;4288;48.484;10.024;2022-11-10T04:38:45;96214.03;;;16.77;82.65
8501;BME280;4288;48.484;10.024;2022-11-10T04:41:13;96214.78;;;16.77;82.79
8501;BME280;4288;48.484;10.024;2022-11-10T04:43:41;96220.19;;;16.77;82.54
8501;BME280;4288;48.484;10.024;2022-11-10T04:46:20;96220.94;;;16.78;82.51
8501;BME280;4288;48.484;10.024;2022-11-10T04:48:50;96222.88;;;16.77;82.40
8501;BME280;4288;48.484;10.024;2022-11-10T04:51:18;96225.97;;;16.76;82.59
8501;BME280;4288;48.484;10.024;2022-11-10T04:53:45;96236.38;;;16.77;82.48
8501;BME280;4288;48.484;10.024;2022-11-10T04:56:14;96241.78;;;16.77;82.37
8501;BME280;4288;48.484;10.024;2022-11-10T04:58:41;96242.53;;;16.78;82.51
8501;BME280;4288;48.484;10.024;2022-11-10T05:01:10;96242.19;;;16.76;82.49
8501;BME280;4288;48.484;10.024;2022-11-10T05:03:38;96246.44;;;16.77;82.37
8501;BME280;4288;48.484;10.024;2022-11-10T05:06:07;96253.75;;;16.76;82.36
8501;BME280;4288;48.484;10.024;2022-11-10T05:08:34;96261.06;;;16.76;82.34
8501;BME280;4288;48.484;10.024;2022-11-10T05:11:03;96263.78;;;16.76;82.27
8501;BME280;4288;48.484;10.024;2022-11-10T05:13:30;96257.22;;;16.77;82.50
8501;BME280;4288;48.484;10.024;2022-11-10T05:15:57;96268.03;;;16.77;82.30
8501;BME280;4288;48.484;10.024;2022-11-10T05:18:25;96272.66;;;16.76;82.27
8501;BME280;4288;48.484;10.024;2022-11-10T05:20:52;96280.75;;;16.76;82.24
8501;BME280;4288;48.484;10.024;2022-11-10T05:23:20;96280.75;;;16.76;82.22
8501;BME280;4288;48.484;10.024;2022-11-10T05:26:09;96284.25;;;16.73;82.27
8501;BME280;4288;48.484;10.024;2022-11-10T05:28:36;96282.69;;;16.76;82.14
8501;BME280;4288;48.484;10.024;2022-11-10T05:31:04;96277.28;;;16.76;82.13
8501;BME280;4288;48.484;10.024;2022-11-10T05:33:32;96285.38;;;16.76;81.87
8501;BME280;4288;48.484;10.024;2022-11-10T05:36:00;96285.38;;;16.76;81.73
8501;BME280;4288;48.484;10.024;2022-11-10T05:38:29;96296.19;;;16.76;81.95
8501;BME280;4288;48.484;10.024;2022-11-10T05:40:56;96298.88;;;16.76;81.72
8501;BME280;4288;48.484;10.024;2022-11-10T05:43:23;96298.09;;;16.75;81.83
8501;BME280;4288;48.484;10.024;2022-11-10T05:45:50;96303.50;;;16.75;81.73
8501;BME280;4288;48.484;10.024;2022-11-10T05:48:18;96311.59;;;16.75;81.87
8501;BME280;4288;48.484;10.024;2022-11-10T05:50:45;96327.78;;;16.75;81.76
8501;BME280;4288;48.484;10.024;2022-11-10T05:53:12;96331.28;;;16.76;81.64
8501;BME280;4288;48.484;10.024;2022-11-10T05:55:40;96336.31;;;16.74;81.79
8501;BME280;4288;48.484;10.024;2022-11-10T05:58:08;96338.59;;;16.75;81.73
8501;BME280;4288;48.484;10.024;2022-11-10T06:00:35;96345.94;;;16.75;81.59
8501;BME280;4288;48.484;10.024;2022-11-10T06:03:05;96347.47;;;16.76;81.78
8501;BME280;4288;48.484;10.024;2022-11-10T06:05:34;96342.47;;;16.74;81.56
8501;BME280;4288;48.484;10.024;2022-11-10T06:08:03;96346.69;;;16.75;81.45
8501;BME280;4288;48.484;10.024;2022-11-10T06:10:31;96348.66;;;16.75;81.35
8501;BME280;4288;48.484;10.024;2022-11-10T06:13:00;96352.88;;;16.76;81.30
8501;BME280;4288;48.484;10.024;2022-11-10T06:15:28;96355.56;;;16.76;81.29
8501;BME280;4288;48.484;10.024;2022-11-10T06:17:56;96357.50;;;16.75;81.31
8501;BME280;4288;48.484;10.024;2022-11-10T06:20:24;96367.56;;;16.75;81.27
8501;BME280;4288;48.484;10.024;2022-11-10T06:22:59;96375.66;;;16.75;81.32
8501;BME280;4288;48.484;10.024;2022-11-10T06:25:28;96383.75;;;16.75;81.11
8501;BME280;4288;48.484;10.024;2022-11-10T06:27:56;96391.06;;;16.74;81.21
8501;BME280;4288;48.484;10.024;2022-11-10T06:30:25;96380.28;;;16.74;81.20
8501;BME280;4288;48.484;10.024;2022-11-10T06:32:53;96385.66;;;16.74;81.21
8501;BME280;4288;48.484;10.024;2022-11-10T06:35:22;96392.25;;;16.73;81.21
8501;BME280;4288;48.484;10.024;2022-11-10T06:38:00;96393.78;;;16.74;81.01
8501;BME280;4288;48.484;10.024;2022-11-10T06:40:28;96392.25;;;16.73;80.92
8501;BME280;4288;48.484;10.024;2022-11-10T06:42:55;96398.41;;;16.74;80.96
8501;BME280;4288;48.484;10.024;2022-11-10T06:45:24;96409.97;;;16.74;80.88
8501;BME280;4288;48.484;10.024;2022-11-10T06:47:59;96405.75;;;16.73;80.77
8501;BME280;4288;48.484;10.024;2022-11-10T06:50:27;96413.84;;;16.73;81.01
8501;BME280;4288;48.484;10.024;2022-11-10T06:52:54;96415.00;;;16.72;80.87
8501;BME280;4288;48.484;10.024;2022-11-10T06:55:22;96425.78;;;16.72;80.88
8501;BME280;4288;48.484;10.024;2022-11-10T06:57:49;96431.97;;;16.73;80.66
8501;BME280;4288;48.484;10.024;2022-11-10T07:00:17;96434.66;;;16.73;81.40
8501;BME280;4288;48.484;10.024;2022-11-10T07:02:46;96433.91;;;16.72;80.82
8501;BME280;4288;48.484;10.024;2022-11-10T07:05:13;96447.00;;;16.74;80.98
8501;BME280;4288;48.484;10.024;2022-11-10T07:07:41;96450.09;;;16.72;80.86
8501;BME280;4288;48.484;10.024;2022-11-10T07:10:08;96460.13;;;16.72;81.00
8501;BME280;4288;48.484;10.024;2022-11-10T07:12:36;96471.69;;;16.72;80.82
8501;BME280;4288;48.484;10.024;2022-11-10T07:15:04;96473.63;;;16.72;80.72
8501;BME280;4288;48.484;10.024;2022-11-10T07:17:31;96485.19;;;16.72;80.74
8501;BME280;4288;48.484;10.024;2022-11-10T07:19:59;96495.22;;;16.72;80.63
8501;BME280;4288;48.484;10.024;2022-11-10T07:22:26;96491.00;;;16.71;80.73
8501;BME280;4288;48.484;10.024;2022-11-10T07:24:54;96493.69;;;16.71;80.60
8501;BME280;4288;48.484;10.024;2022-11-10T07:27:21;96498.31;;;16.70;80.59
8501;BME280;4288;48.484;10.024;2022-11-10T07:29:48;96506.41;;;16.70;80.76
8501;BME280;4288;48.484;10.024;2022-11-10T07:32:15;96501.78;;;16.71;80.66
8501;BME280;4288;48.484;10.024;2022-11-10T07:34:42;96508.34;;;16.70;80.72
8501;BME280;4288;48.484;10.024;2022-11-10T07:37:11;96509.13;;;16.70;80.33
8501;BME280;4288;48.484;10.024;2022-11-10T07:39:38;96519.13;;;16.70;80.62
8501;BME280;4288;48.484;10.024;2022-11-10T07:42:05;96521.09;;;16.69;80.46
8501;BME280;4288;48.484;10.024;2022-11-10T07:44:32;96523.00;;;16.69;80.29
8501;BME280;4288;48.484;10.024;2022-11-10T07:46:59;96537.28;;;16.69;80.77
8501;BME280;4288;48.484;10.024;2022-11-10T07:49:26;96536.13;;;16.70;80.56
8501;BME280;4288;48.484;10.024;2022-11-10T07:51:53;96531.13;;;16.69;80.31
8501;BME280;4288;48.484;10.024;2022-11-10T07:54:22;96542.69;;;16.69;80.61
8501;BME280;4288;48.484;10.024;2022-11-10T07:56:49;96544.63;;;16.69;80.51
8501;BME280;4288;48.484;10.024;2022-11-10T07:59:16;96547.31;;;16.69;80.72
8501;BME280;4288;48.484;10.024;2022-11-10T08:01:44;96551.53;;;16.70;80.72
8501;BME280;4288;48.484;10.024;2022-11-10T08:04:12;96556.19;;;16.69;80.62
8501;BME280;4288;48.484;10.024;2022-11-10T08:06:39;96547.31;;;16.69;80.77
8501;BME280;4288;48.484;10.024;2022-11-10T08:09:06;96554.63;;;16.68;80.76
8501;BME280;4288;48.484;10.024;2022-11-10T08:11:34;96553.50;;;16.69;80.95
8501;BME280;4288;48.484;10.024;2022-11-10T08:14:01;96552.72;;;16.69;80.96
8501;BME280;4288;48.484;10.024;2022-11-10T08:16:28;96565.44;;;16.68;80.83
8501;BME280;4288;48.484;10.024;2022-11-10T08:18:55;96575.09;;;16.69;80.84
8501;BME280;4288;48.484;10.024;2022-11-10T08:21:23;96568.91;;;16.69;80.83
8501;BME280;4288;48.484;10.024;2022-11-10T08:23:50;96566.97;;;16.69;80.85
8501;BME280;4288;48.484;10.024;2022-11-10T08:26:17;96566.97;;;16.69;80.84
8501;BME280;4288;48.484;10.024;2022-11-10T08:28:46;96565.03;;;16.70;80.41
8501;BME280;4288;48.484;10.024;2022-11-10T08:31:13;96577.00;;;16.69;80.79
8501;BME280;4288;48.484;10.024;2022-11-10T08:33:41;96579.72;;;16.69;80.47
8501;BME280;4288;48.484;10.024;2022-11-10T08:36:09;96584.72;;;16.67;79.67
8501;BME280;4288;48.484;10.024;2022-11-10T08:38:36;96591.66;;;16.64;78.45
8501;BME280;4288;48.484;10.024;2022-11-10T08:41:04;96591.69;;;16.61;77.45
8501;BME280;4288;48.484;10.024;2022-11-10T08:43:31;96596.34;;;16.57;76.98
8501;BME280;4288;48.484;10.024;2022-11-10T08:45:59;96591.72;;;16.54;76.86
8501;BME280;4288;48.484;10.024;2022-11-10T08:48:27;96589.41;;;16.52;76.64
8501;BME280;4288;48.484;10.024;2022-11-10T08:50:54;96600.97;;;16.53;77.83
8501;BME280;4288;48.484;10.024;2022-11-10T08:53:24;96604.44;;;16.53;78.15
8501;BME280;4288;48.484;10.024;2022-11-10T08:55:52;96612.56;;;16.53;78.35
8501;BME280;4288;48.484;10.024;2022-11-10T08:58:21;96608.28;;;16.52;78.70
8501;BME280;4288;48.484;10.024;2022-11-10T09:00:49;96610.22;;;16.55;78.59
8501;BME280;4288;48.484;10.024;2022-11-10T09:03:20;96619.09;;;16.56;78.50
8501;BME280;4288;48.484;10.024;2022-11-10T09:05:48;96614.47;;;16.53;78.25
8501;BME280;4288;48.484;10.024;2022-11-10T09:08:16;96621.03;;;16.55;78.56
8501;BME280;4288;48.484;10.024;2022-11-10T09:10:46;96623.31;;;16.57;78.73
8501;BME280;4288;48.484;10.024;2022-11-10T09:13:15;96625.25;;;16.56;78.50
8501;BME280;4288;48.484;10.024;2022-11-10T09:15:43;96634.13;;;16.57;78.64
8501;BME280;4288;48.484;10.024;2022-11-10T09:18:12;96632.19;;;16.57;78.50
8501;BME280;4288;48.484;10.024;2022-11-10T09:20:41;96639.13;;;16.58;78.61
8501;BME280;4288;48.484;10.024;2022-11-10T09:23:11;96636.44;;;16.58;78.81
8501;BME280;4288;48.484;10.024;2022-11-10T09:25:39;96638.34;;;16.58;78.59
8501;BME280;4288;48.484;10.024;2022-11-10T09:28:11;96633.72;;;16.58;78.81
8501;BME280;4288;48.484;10.024;2022-11-10T09:30:40;96635.28;;;16.59;78.83
8501;BME280;4288;48.484;10.024;2022-11-10T09:33:07;96634.50;;;16.59;78.73
8501;BME280;4288;48.484;10.024;2022-11-10T09:35:34;96641.44;;;16.60;78.58
8501;BME280;4288;48.484;10.024;2022-11-10T09:38:03;96641.44;;;16.60;78.86
8501;BME280;4288;48.484;10.024;2022-11-10T09:40:44;96638.72;;;16.60;78.82
8501;BME280;4288;48.484;10.024;2022-11-10T09:43:22;96648.78;;;16.59;78.92
8501;BME280;4288;48.484;10.024;2022-11-10T09:45:54;96656.88;;;16.59;78.90
8501;BME280;4288;48.484;10.024;2022-11-10T09:48:27;96653.00;;;16.60;78.64
8501;BME280;4288;48.484;10.024;2022-11-10T09:51:00;96655.31;;;16.58;78.95
8501;BME280;4288;48.484;10.024;2022-11-10T09:53:35;96651.09;;;16.57;78.69
8501;BME280;4288;48.484;10.024;2022-11-10T09:56:05;96650.31;;;16.57;78.87
8501;BME280;4288;48.484;10.024;2022-11-10T09:58:37;96659.94;;;16.58;78.96
8501;BME280;4288;48.484;10.024;2022-11-10T10:01:17;96671.91;;;16.60;79.10
8501;BME280;4288;48.484;10.024;2022-11-10T10:03:56;96674.59;;;16.60;79.06
8501;BME280;4288;48.484;10.024;2022-11-10T10:06:26;96682.69;;;16.60;79.02
8501;BME280;4288;48.484;10.024;2022-11-10T10:09:03;96683.88;;;16.59;79.04
8501;BME280;4288;48.484;10.024;2022-11-10T10:11:46;96689.66;;;16.61;79.04
8501;BME280;4288;48.484;10.024;2022-11-10T10:14:33;96696.97;;;16.61;79.18
8501;BME280;4288;48.484;10.024;2022-11-10T10:17:14;96698.91;;;16.60;78.89
8501;BME280;4288;48.484;10.024;2022-11-10T10:19:51;96692.34;;;16.58;79.13
8501;BME280;4288;48.484;10.024;2022-11-10T10:22:53;96696.19;;;16.60;79.13
8501;BME280;4288;48.484;10.024;2022-11-10T10:25:26;96701.59;;;16.60;79.07
8501;BME280;4288;48.484;10.024;2022-11-10T10:28:01;96702.38;;;16.61;79.02
8501;BME280;4288;48.484;10.024;2022-11-10T10:30:30;96708.53;;;16.61;79.11
8501;BME280;4288;48.484;10.024;2022-11-10T10:33:10;96704.66;;;16.62;79.02
8501;BME280;4288;48.484;10.024;2022-11-10T10:35:40;96705.06;;;16.64;79.06
8501;BME280;4288;48.484;10.024;2022-11-10T10:38:19;96704.28;;;16.67;79.09
8501;BME280;4288;48.484;10.024;2022-11-10T10:40:51;96710.81;;;16.70;79.27
8501;BME280;4288;48.484;10.024;2022-11-10T10:43:18;96706.97;;;16.71;79.64
8501;BME280;4288;48.484;10.024;2022-11-10T10:46:04;96711.19;;;16.72;79.88
8501;BME280;4288;48.484;10.024;2022-11-10T10:48:32;96725.84;;;16.74;80.00
8501;BME280;4288;48.484;10.024;2022-11-10T10:50:59;96714.66;;;16.76;80.33
8501;BME280;4288;48.484;10.024;2022-11-10T10:53:26;96710.03;;;16.76;80.25
8501;BME280;4288;48.484;10.024;2022-11-10T10:55:57;96713.53;;;16.77;80.32
8501;BME280;4288;48.484;10.024;2022-11-10T10:58:28;96709.66;;;16.78;80.47
8501;BME280;4288;48.484;10.024;2022-11-10T11:01:02;96721.22;;;16.78;80.47
8501;BME280;4288;48.484;10.024;2022-11-10T11:03:39;96725.44;;;16.79;80.49
8501;BME280;4288;48.484;10.024;2022-11-10T11:06:19;96721.22;;;16.78;80.45
8501;BME280;4288;48.484;10.024;2022-11-10T11:08:56;96711.19;;;16.79;80.54
8501;BME280;4288;48.484;10.024;2022-11-10T11:11:28;96711.19;;;16.79;80.44
8501;BME280;4288;48.484;10.024;2022-11-10T11:14:19;96708.50;;;16.79;80.58
8501;BME280;4288;48.484;10.024;2022-11-10T11:16:49;96706.94;;;16.78;80.13
8501;BME280;4288;48.484;10.024;2022-11-10T11:19:19;96705.03;;;16.78;80.29
8501;BME280;4288;48.484;10.024;2022-11-10T11:25:08;96698.84;;;16.78;80.48
8501;BME280;4288;48.484;10.024;2022-11-10T11:27:45;96703.09;;;16.79;80.48
8501;BME280;4288;48.484;10.024;2022-11-10T11:30:17;96700.41;;;16.79;80.55
8501;BME280;4288;48.484;10.024;2022-11-10T11:33:08;96707.72;;;16.78;80.63
8501;BME280;4288;48.484;10.024;2022-11-10T11:35:48;96707.34;;;16.76;80.64
8501;BME280;4288;48.484;10.024;2022-11-10T11:38:31;96698.84;;;16.74;80.86
8501;BME280;4288;48.484;10.024;2022-11-10T11:41:12;96702.34;;;16.75;81.01
8501;BME280;4288;48.484;10.024;2022-11-10T11:44:09;96696.94;;;16.75;81.19
8501;BME280;4288;48.484;10.024;2022-11-10T11:46:45;96697.34;;;16.73;81.11
8501;BME280;4288;48.484;10.024;2022-11-10T11:49:45;96703.88;;;16.76;81.12
8501;BME280;4288;48.484;10.024;2022-11-10T11:52:24;96697.69;;;16.75;81.00
8501;BME280;4288;48.484;10.024;2022-11-10T11:55:14;96696.16;;;16.74;81.07
8501;BME280;4288;48.484;10.024;2022-11-10T11:58:02;96695.00;;;16.75;81.26
8501;BME280;4288;48.484;10.024;2022-11-10T12:00:43;96698.47;;;16.76;81.45
8501;BME280;4288;48.484;10.024;2022-11-10T12:03:38;96689.59;;;16.75;81.59
8501;BME280;4288;48.484;10.024;2022-11-10T12:06:26;96688.84;;;16.75;81.39
8501;BME280;4288;48.484;10.024;2022-11-10T12:09:03;96688.84;;;16.75;81.46
8501;BME280;4288;48.484;10.024;2022-11-10T12:11:52;96698.47;;;16.76;81.50
8501;BME280;4288;48.484;10.024;2022-11-10T12:14:31;96695.38;;;16.74;81.50
8501;BME280;4288;48.484;10.024;2022-11-10T12:17:11;96693.06;;;16.76;81.10
8501;BME280;4288;48.484;10.024;2022-11-10T12:19:52;96689.22;;;16.77;81.33
8501;BME280;4288;48.484;10.024;2022-11-10T12:22:33;96682.66;;;16.74;81.56
8501;BME280;4288;48.484;10.024;2022-11-10T12:25:17;96686.53;;;16.77;81.50
8501;BME280;4288;48.484;10.024;2022-11-10T12:27:51;96691.53;;;16.78;81.41
8501;BME280;4288;48.484;10.024;2022-11-10T12:30:20;96686.91;;;16.79;81.49
8501;BME280;4288;48.484;10.024;2022-11-10T12:32:53;96684.19;;;16.79;81.65
8501;BME280;4288;48.484;10.024;2022-11-10T12:35:25;96681.09;;;16.80;81.64
8501;BME280;4288;48.484;10.024;2022-11-10T12:37:59;96677.63;;;16.80;81.46
8501;BME280;4288;48.484;10.024;2022-11-10T12:40:30;96679.94;;;16.81;81.33
8501;BME280;4288;48.484;10.024;2022-11-10T12:43:02;96678.78;;;16.82;81.79
8501;BME280;4288;48.484;10.024;2022-11-10T12:45:35;96681.47;;;16.82;81.48
8501;BME280;4288;48.484;10.024;2022-11-10T12:48:08;96675.31;;;16.82;81.75
8501;BME280;4288;48.484;10.024;2022-11-10T12:50:47;96670.69;;;16.82;81.55
8501;BME280;4288;48.484;10.024;2022-11-10T12:53:21;96671.06;;;16.81;81.72
8501;BME280;4288;48.484;10.024;2022-11-10T12:55:54;96674.91;;;16.83;81.59
8501;BME280;4288;48.484;10.024;2022-11-10T12:58:22;96668.34;;;16.84;82.00
8501;BME280;4288;48.484;10.024;2022-11-10T13:00:56;96672.97;;;16.84;81.72
8501;BME280;4288;48.484;10.024;2022-11-10T13:03:29;96673.38;;;16.82;81.90
8501;BME280;4288;48.484;10.024;2022-11-10T13:05:59;96673.38;;;16.82;82.07
8501;BME280;4288;48.484;10.024;2022-11-10T13:08:32;96672.59;;;16.82;82.00
8501;BME280;4288;48.484;10.024;2022-11-10T13:11:05;96678.00;;;16.82;82.31
8501;BME280;4288;48.484;10.024;2022-11-10T13:13:42;96672.59;;;16.82;82.25
8501;BME280;4288;48.484;10.024;2022-11-10T13:16:48;96669.53;;;16.80;82.38
8501;BME280;4288;48.484;10.024;2022-11-10T13:19:48;96670.28;;;16.84;82.64
8501;BME280;4288;48.484;10.024;2022-11-10T13:22:34;96672.97;;;16.84;82.69
8501;BME280;4288;48.484;10.024;2022-11-10T13:25:51;96675.69;;;16.84;82.61
8501;BME280;4288;48.484;10.024;2022-11-10T13:28:59;96682.63;;;16.85;82.81
8501;BME280;4288;48.484;10.024;2022-11-10T13:31:55;96679.53;;;16.86;82.99
8501;BME280;4288;48.484;10.024;2022-11-10T13:34:33;96683.41;;;16.89;83.37
8501;BME280;4288;48.484;10.024;2022-11-10T13:37:41;96676.41;;;16.91;83.46
8501;BME280;4288;48.484;10.024;2022-11-10T13:40:30;96682.59;;;16.92;83.78